Time;durP1;ratioP1;P1;durP2;ratioP2;P2;SDS_P1;SDS_P2;PMS_P1;PMS_P2;Temp;Humidity;BMP_temperature;BMP_pressure;BME280_temperature;BME280_humidity;BME280_pressure;Samples;Min_cycle;Max_cycle;Signal;HPM_P1;HPM_P2
2021/08/05 00:02:21;;;;;;;2.73;2.37;;;18.30;99.90;;;;;;4920652;29;20461;-74
2021/08/05 00:04:48;;;;;;;3.90;2.73;;;18.30;99.90;;;;;;4920512;29;20782;-74
2021/08/05 00:07:14;;;;;;;3.40;2.60;;;18.30;99.90;;;;;;4921193;29;20821;-73
2021/08/05 00:09:43;;;;;;;2.67;2.40;;;18.30;99.90;;;;;;4920513;29;20480;-75
2021/08/05 00:12:12;;;;;;;4.10;2.40;;;18.30;99.90;;;;;;4920552;29;20466;-74
2021/08/05 00:14:40;;;;;;;4.83;2.70;;;18.30;99.90;;;;;;4920305;29;20485;-76
2021/08/05 00:17:07;;;;;;;6.50;2.67;;;18.20;99.90;;;;;;4921030;29;20476;-74
2021/08/05 00:19:34;;;;;;;2.80;1.93;;;18.20;99.90;;;;;;4920064;29;20925;-74
2021/08/05 00:22:01;;;;;;;3.13;2.63;;;18.20;99.90;;;;;;4920452;29;20476;-73
2021/08/05 00:24:28;;;;;;;2.33;2.13;;;18.20;99.90;;;;;;4920561;29;20461;-73
2021/08/05 00:26:55;;;;;;;2.83;2.17;;;18.20;99.90;;;;;;4920129;29;20485;-73
2021/08/05 00:29:23;;;;;;;3.57;2.53;;;18.20;99.90;;;;;;4920459;29;20465;-73
2021/08/05 00:31:49;;;;;;;2.97;2.57;;;18.20;99.90;;;;;;4920380;29;20472;-73
2021/08/05 00:34:16;;;;;;;3.20;2.73;;;18.10;99.90;;;;;;4919320;29;20469;-74
2021/08/05 00:36:43;;;;;;;4.07;3.03;;;18.10;99.90;;;;;;4920221;29;20473;-74
2021/08/05 00:39:09;;;;;;;5.97;3.00;;;18.10;99.90;;;;;;4920773;29;20462;-74
2021/08/05 00:41:36;;;;;;;2.83;2.60;;;18.00;99.90;;;;;;4932225;29;20465;-74
2021/08/05 00:44:03;;;;;;;5.43;2.53;;;18.00;99.90;;;;;;4928723;29;20454;-73
2021/08/05 00:46:32;;;;;;;4.03;2.57;;;18.00;99.90;;;;;;4920402;29;20496;-73
2021/08/05 00:48:59;;;;;;;2.90;2.33;;;18.00;99.90;;;;;;4920495;29;20467;-73
2021/08/05 00:51:25;;;;;;;3.57;2.60;;;18.00;99.90;;;;;;4920698;29;20461;-74
2021/08/05 00:53:52;;;;;;;2.90;2.50;;;18.00;99.90;;;;;;4920822;29;20560;-74
2021/08/05 00:56:19;;;;;;;3.43;2.40;;;18.00;99.90;;;;;;4920356;29;20465;-74
2021/08/05 00:58:45;;;;;;;3.80;2.70;;;18.00;99.90;;;;;;4920558;29;20472;-74
2021/08/05 01:01:17;;;;;;;7.80;2.70;;;18.00;99.90;;;;;;4920446;29;20480;-74
2021/08/05 01:03:49;;;;;;;3.43;2.90;;;18.00;99.90;;;;;;4920824;29;20446;-73
2021/08/05 01:06:22;;;;;;;7.13;2.67;;;17.90;99.90;;;;;;4920003;29;20540;-72
2021/08/05 01:08:55;;;;;;;7.30;2.60;;;17.90;99.90;;;;;;4920475;29;20449;-74
2021/08/05 01:11:28;;;;;;;2.80;2.60;;;17.90;99.90;;;;;;4919562;29;20453;-74
2021/08/05 01:13:57;;;;;;;3.07;2.77;;;17.80;99.90;;;;;;4919328;29;20493;-74
2021/08/05 01:16:28;;;;;;;2.57;2.37;;;17.80;99.90;;;;;;4919697;29;20457;-74
2021/08/05 01:19:02;;;;;;;3.63;2.70;;;17.80;99.90;;;;;;4919603;29;20461;-74
2021/08/05 01:21:40;;;;;;;3.73;2.70;;;17.80;99.90;;;;;;4919229;29;20446;-74
2021/08/05 01:24:11;;;;;;;3.37;2.83;;;17.80;99.90;;;;;;4919119;29;20536;-73
2021/08/05 01:26:57;;;;;;;4.67;2.60;;;17.70;99.90;;;;;;4919208;29;20481;-74
2021/08/05 01:29:24;;;;;;;2.37;2.17;;;17.70;99.90;;;;;;4919013;29;20460;-73
2021/08/05 01:31:51;;;;;;;2.70;2.50;;;17.70;99.90;;;;;;4919085;29;20472;-73
2021/08/05 01:34:19;;;;;;;3.60;2.37;;;17.60;99.90;;;;;;4918834;29;20469;-73
2021/08/05 01:36:48;;;;;;;4.50;2.33;;;17.60;99.90;;;;;;4919114;29;20465;-73
2021/08/05 01:39:16;;;;;;;2.20;2.00;;;17.60;99.90;;;;;;4919110;29;20792;-73
2021/08/05 01:41:46;;;;;;;2.87;2.10;;;17.60;99.90;;;;;;4918864;29;20540;-73
2021/08/05 01:44:14;;;;;;;3.93;2.67;;;17.60;99.90;;;;;;4919020;29;20449;-74
2021/08/05 01:46:41;;;;;;;10.50;2.70;;;17.50;99.90;;;;;;4918356;29;20931;-73
2021/08/05 01:49:08;;;;;;;3.37;2.60;;;17.50;99.90;;;;;;4918918;29;20462;-73
2021/08/05 01:51:35;;;;;;;3.50;2.40;;;17.50;99.90;;;;;;4918783;29;20520;-74
2021/08/05 01:54:03;;;;;;;6.40;2.33;;;17.50;99.90;;;;;;4918865;29;20465;-74
2021/08/05 01:56:30;;;;;;;3.33;2.60;;;17.50;99.90;;;;;;4918916;29;20457;-74
2021/08/05 01:58:59;;;;;;;3.80;2.60;;;17.50;99.90;;;;;;4918362;29;20976;-73
2021/08/05 02:01:26;;;;;;;5.00;2.70;;;17.40;99.90;;;;;;4918678;29;20512;-74
2021/08/05 02:04:03;;;;;;;2.90;2.60;;;17.50;99.90;;;;;;4918791;29;20457;-73
2021/08/05 02:06:34;;;;;;;3.00;2.53;;;17.40;99.90;;;;;;4918555;29;20473;-73
2021/08/05 02:09:05;;;;;;;2.57;2.23;;;17.40;99.90;;;;;;4918358;29;20925;-74
2021/08/05 02:11:35;;;;;;;2.83;2.23;;;17.40;99.90;;;;;;4918278;29;20787;-73
2021/08/05 02:14:08;;;;;;;3.47;2.67;;;17.40;99.90;;;;;;4918312;29;20493;-74
2021/08/05 02:16:38;;;;;;;2.83;2.40;;;17.40;99.90;;;;;;4918409;29;20485;-74
2021/08/05 02:19:07;;;;;;;3.67;2.87;;;17.40;99.90;;;;;;4918411;29;20446;-74
2021/08/05 02:21:34;;;;;;;2.80;2.20;;;17.40;99.90;;;;;;4918525;29;20784;-74
2021/08/05 02:24:01;;;;;;;2.47;2.27;;;17.30;99.90;;;;;;4918346;29;20540;-74
2021/08/05 02:26:31;;;;;;;5.97;2.90;;;17.30;99.90;;;;;;4918055;29;20504;-74
2021/08/05 02:28:58;;;;;;;4.33;2.30;;;17.30;99.90;;;;;;4918271;29;20524;-74
2021/08/05 02:31:27;;;;;;;3.33;3.00;;;17.30;99.90;;;;;;4918162;29;20465;-74
2021/08/05 02:33:56;;;;;;;4.03;2.30;;;17.20;99.90;;;;;;4918384;29;20476;-73
2021/08/05 02:36:23;;;;;;;5.33;2.50;;;17.20;99.90;;;;;;4918066;29;20600;-73
2021/08/05 02:38:50;;;;;;;2.50;2.30;;;17.20;99.90;;;;;;4918354;29;20472;-75
2021/08/05 02:41:18;;;;;;;3.47;2.60;;;17.20;99.90;;;;;;4917984;29;20476;-74
2021/08/05 02:43:45;;;;;;;3.00;2.70;;;17.20;99.90;;;;;;4918125;29;20476;-73
2021/08/05 02:46:15;;;;;;;3.10;2.80;;;17.20;99.90;;;;;;4918066;29;20496;-75
2021/08/05 02:48:45;;;;;;;5.07;2.13;;;17.20;99.90;;;;;;4918383;29;20777;-73
2021/08/05 02:51:13;;;;;;;3.33;2.13;;;17.20;99.90;;;;;;4918191;29;20479;-73
2021/08/05 02:53:39;;;;;;;3.03;2.40;;;17.10;99.90;;;;;;4917965;29;20528;-74
2021/08/05 02:56:09;;;;;;;3.00;2.43;;;17.10;99.90;;;;;;4918238;29;20458;-74
2021/08/05 02:58:37;;;;;;;5.20;2.20;;;17.10;99.90;;;;;;4921607;29;20492;-74
2021/08/05 03:01:04;;;;;;;2.50;2.30;;;17.10;99.90;;;;;;4921921;29;20461;-75
2021/08/05 03:03:31;;;;;;;4.20;2.47;;;17.10;99.90;;;;;;4922013;29;20461;-74
2021/08/05 03:06:00;;;;;;;3.23;2.50;;;17.10;99.90;;;;;;4921557;29;20492;-74
2021/08/05 03:08:26;;;;;;;2.90;2.70;;;17.10;99.90;;;;;;4921669;29;20798;-74
2021/08/05 03:10:53;;;;;;;3.17;2.83;;;17.10;99.90;;;;;;4921099;29;20764;-74
2021/08/05 03:13:20;;;;;;;2.93;2.63;;;17.10;99.90;;;;;;4921422;29;20501;-74
2021/08/05 03:15:47;;;;;;;4.40;2.63;;;17.00;99.90;;;;;;4921409;29;20482;-74
2021/08/05 03:18:13;;;;;;;2.60;2.37;;;17.00;99.90;;;;;;4921306;29;20476;-73
2021/08/05 03:20:40;;;;;;;3.20;2.90;;;17.00;99.90;;;;;;4921038;29;20469;-74
2021/08/05 03:23:08;;;;;;;6.07;3.00;;;17.00;99.90;;;;;;4921369;29;20473;-74
2021/08/05 03:25:35;;;;;;;5.00;3.00;;;17.00;99.90;;;;;;4921341;29;20469;-74
2021/08/05 03:28:01;;;;;;;4.63;2.63;;;17.00;99.90;;;;;;4921254;29;20771;-74
2021/08/05 03:30:30;;;;;;;3.27;2.60;;;17.00;99.90;;;;;;4921081;29;20547;-74
2021/08/05 03:33:00;;;;;;;2.40;2.20;;;17.00;99.90;;;;;;4921392;29;20476;-74
2021/08/05 03:35:26;;;;;;;2.90;2.70;;;16.90;99.90;;;;;;4920840;29;20903;-74
2021/08/05 03:37:53;;;;;;;3.00;2.20;;;16.90;99.90;;;;;;4920942;29;20746;-74
2021/08/05 03:40:21;;;;;;;3.27;2.90;;;16.90;99.90;;;;;;4920993;29;20476;-74
2021/08/05 03:42:48;;;;;;;3.30;2.73;;;17.00;99.90;;;;;;4920949;29;20536;-73
2021/08/05 03:45:15;;;;;;;3.10;2.67;;;17.00;99.90;;;;;;4920841;29;20462;-75
2021/08/05 03:47:41;;;;;;;2.80;2.60;;;17.00;99.90;;;;;;4921084;29;20544;-73
2021/08/05 03:50:09;;;;;;;2.90;2.60;;;17.00;99.90;;;;;;4920743;29;20816;-73
2021/08/05 03:52:36;;;;;;;3.07;2.73;;;17.00;99.90;;;;;;4920566;29;20469;-74
2021/08/05 03:55:03;;;;;;;4.60;2.90;;;17.00;99.90;;;;;;4920334;29;20559;-73
2021/08/05 03:57:31;;;;;;;4.30;2.60;;;17.00;99.90;;;;;;4920787;29;20473;-73
2021/08/05 03:59:57;;;;;;;5.70;2.97;;;17.00;99.90;;;;;;4920535;29;20472;-74
2021/08/05 04:02:24;;;;;;;4.13;2.50;;;17.00;99.90;;;;;;4920306;29;20528;-74
2021/08/05 04:04:51;;;;;;;5.93;4.43;;;17.00;99.90;;;;;;4920362;29;20461;-74
2021/08/05 04:07:20;;;;;;;3.60;2.97;;;17.00;99.90;;;;;;4920480;29;20481;-73
2021/08/05 04:09:47;;;;;;;4.40;2.70;;;17.00;99.90;;;;;;4919362;29;20568;-74
2021/08/05 04:12:14;;;;;;;4.27;2.97;;;17.00;99.90;;;;;;4920683;29;20466;-73
2021/08/05 04:14:42;;;;;;;3.60;3.30;;;17.00;99.90;;;;;;4920537;29;20489;-72
2021/08/05 04:17:09;;;;;;;3.37;2.57;;;17.00;99.90;;;;;;4920859;29;20466;-73
2021/08/05 04:19:35;;;;;;;4.80;3.20;;;17.10;99.90;;;;;;4920076;29;20473;-73
2021/08/05 04:22:04;;;;;;;4.93;3.20;;;17.10;99.90;;;;;;4920313;29;20500;-74
2021/08/05 04:24:30;;;;;;;3.43;3.13;;;17.10;99.90;;;;;;4920289;29;20466;-73
2021/08/05 04:26:57;;;;;;;5.00;3.03;;;17.10;99.90;;;;;;4920398;29;20830;-72
2021/08/05 04:29:24;;;;;;;3.50;3.17;;;17.10;99.90;;;;;;4920178;29;20470;-74
2021/08/05 04:31:52;;;;;;;2.97;2.63;;;17.10;99.90;;;;;;4920224;29;20465;-74
2021/08/05 04:34:19;;;;;;;5.50;2.97;;;17.10;99.90;;;;;;4920156;29;20466;-74
2021/08/05 04:36:46;;;;;;;3.03;2.67;;;17.20;99.90;;;;;;4920356;29;20458;-74
2021/08/05 04:39:13;;;;;;;7.90;3.00;;;17.20;99.90;;;;;;4919869;29;20470;-73
2021/08/05 04:41:39;;;;;;;5.20;2.80;;;17.20;99.90;;;;;;4919944;29;20465;-73
2021/08/05 04:44:06;;;;;;;3.33;3.03;;;17.20;99.90;;;;;;4920364;29;20461;-75
2021/08/05 04:46:33;;;;;;;3.27;2.87;;;17.20;99.90;;;;;;4920340;29;20482;-74
2021/08/05 04:49:02;;;;;;;4.83;2.93;;;17.20;99.90;;;;;;4921306;29;20469;-74
2021/08/05 04:51:31;;;;;;;4.47;2.77;;;17.20;99.90;;;;;;4921291;29;20476;-73
2021/08/05 04:54:00;;;;;;;4.67;3.10;;;17.20;99.90;;;;;;4921042;29;20471;-73
2021/08/05 04:56:26;;;;;;;6.47;2.77;;;17.20;99.90;;;;;;4921270;29;20469;-74
2021/08/05 04:58:53;;;;;;;3.40;2.80;;;17.30;99.90;;;;;;4921695;29;20465;-74
2021/08/05 05:01:20;;;;;;;4.37;3.93;;;17.30;99.90;;;;;;4922380;29;20465;-75
2021/08/05 05:03:48;;;;;;;3.80;3.33;;;17.40;99.90;;;;;;4922342;29;20501;-73
2021/08/05 05:06:17;;;;;;;15.17;12.37;;;17.40;99.90;;;;;;4922275;29;20462;-74
2021/08/05 05:08:44;;;;;;;3.73;3.43;;;17.40;99.90;;;;;;4921920;29;20541;-74
2021/08/05 05:11:11;;;;;;;4.10;3.20;;;17.40;99.90;;;;;;4921306;29;20540;-74
2021/08/05 05:13:37;;;;;;;5.60;3.00;;;17.40;99.90;;;;;;4920817;29;20561;-74
2021/08/05 05:16:05;;;;;;;2.70;2.50;;;17.40;99.90;;;;;;4921158;29;20449;-75
2021/08/05 05:18:31;;;;;;;6.40;3.40;;;17.50;99.90;;;;;;4921289;29;20795;-75
2021/08/05 05:20:59;;;;;;;3.93;2.97;;;17.50;99.90;;;;;;4920177;29;20926;-74
2021/08/05 05:23:27;;;;;;;3.30;3.00;;;17.50;99.90;;;;;;4922598;29;20476;-73
2021/08/05 05:25:53;;;;;;;3.40;3.10;;;17.60;99.90;;;;;;4922118;29;20473;-73
2021/08/05 05:28:20;;;;;;;4.07;3.33;;;17.60;99.90;;;;;;4922966;29;20494;-73
2021/08/05 05:30:47;;;;;;;3.80;3.37;;;17.60;99.90;;;;;;4923015;29;20465;-73
2021/08/05 05:33:14;;;;;;;3.27;2.97;;;17.70;99.90;;;;;;4923199;29;20528;-74
2021/08/05 05:35:43;;;;;;;4.43;2.77;;;17.70;99.90;;;;;;4922950;29;20465;-75
2021/08/05 05:38:10;;;;;;;3.97;3.60;;;17.70;99.90;;;;;;4923958;29;20468;-74
2021/08/05 05:40:38;;;;;;;49.73;37.80;;;17.70;99.90;;;;;;4923855;29;20478;-73
2021/08/05 05:43:05;;;;;;;9.23;5.43;;;17.70;99.90;;;;;;4923888;29;20494;-74
2021/08/05 05:45:32;;;;;;;4.00;3.03;;;17.70;99.90;;;;;;4924647;29;20473;-74
2021/08/05 05:48:00;;;;;;;5.50;3.60;;;17.80;99.90;;;;;;4924055;29;20482;-73
2021/08/05 05:50:28;;;;;;;5.23;3.67;;;17.90;99.90;;;;;;4924491;29;20795;-74
2021/08/05 05:52:56;;;;;;;4.67;3.33;;;17.90;99.90;;;;;;4925204;29;20528;-74
2021/08/05 05:55:23;;;;;;;5.60;3.50;;;18.00;99.90;;;;;;4924346;29;20469;-74
2021/08/05 05:57:52;;;;;;;4.63;3.50;;;18.10;99.90;;;;;;4921858;29;20473;-74
2021/08/05 06:00:19;;;;;;;5.93;4.00;;;18.20;99.90;;;;;;4919817;29;20461;-74
2021/08/05 06:02:45;;;;;;;6.50;4.47;;;18.30;99.90;;;;;;4920396;29;20469;-75
2021/08/05 06:05:12;;;;;;;5.97;4.50;;;18.30;99.90;;;;;;4919842;29;20468;-74
2021/08/05 06:07:43;;;;;;;3.93;3.53;;;18.40;99.90;;;;;;4922151;29;20485;-73
2021/08/05 06:10:12;;;;;;;4.10;3.63;;;18.50;99.90;;;;;;4922115;29;20474;-74
2021/08/05 06:12:39;;;;;;;6.03;4.13;;;18.60;99.90;;;;;;4919874;29;20543;-74
2021/08/05 06:15:08;;;;;;;9.30;4.17;;;18.70;99.90;;;;;;4920815;29;20486;-74
2021/08/05 06:17:34;;;;;;;4.50;3.97;;;18.80;99.90;;;;;;4920080;29;20461;-74
2021/08/05 06:20:01;;;;;;;6.37;4.00;;;18.90;99.90;;;;;;4921491;29;20484;-74
2021/08/05 06:22:28;;;;;;;8.90;3.53;;;19.00;99.90;;;;;;4918967;29;20786;-74
2021/08/05 06:24:55;;;;;;;4.93;4.43;;;19.10;99.90;;;;;;4918215;29;20481;-74
2021/08/05 06:27:23;;;;;;;5.43;3.70;;;19.10;99.90;;;;;;4918619;29;20539;-74
2021/08/05 06:29:50;;;;;;;6.00;4.10;;;19.10;99.90;;;;;;4918073;29;20465;-74
2021/08/05 06:32:18;;;;;;;7.40;4.67;;;19.30;99.90;;;;;;4920520;29;20465;-74
2021/08/05 06:34:44;;;;;;;6.30;3.43;;;19.30;99.90;;;;;;4922360;29;20457;-73
2021/08/05 06:37:11;;;;;;;7.27;4.03;;;19.40;99.90;;;;;;4922022;29;20518;-74
2021/08/05 06:39:38;;;;;;;7.43;3.87;;;19.40;99.90;;;;;;4921738;29;20465;-74
2021/08/05 06:42:05;;;;;;;4.60;3.77;;;19.50;99.90;;;;;;4921848;29;20472;-74
2021/08/05 06:44:35;;;;;;;5.83;5.33;;;19.50;99.90;;;;;;4921799;29;20460;-74
2021/08/05 06:47:03;;;;;;;8.23;5.43;;;19.60;99.90;;;;;;4921889;29;20485;-74
2021/08/05 06:49:31;;;;;;;15.00;11.77;;;19.60;99.90;;;;;;4921678;29;20468;-74
2021/08/05 06:51:58;;;;;;;9.90;7.97;;;19.70;99.90;;;;;;4921701;29;20476;-74
2021/08/05 06:54:27;;;;;;;9.63;4.40;;;19.60;99.90;;;;;;4921796;29;20476;-74
2021/08/05 06:56:54;;;;;;;5.20;3.77;;;19.60;99.90;;;;;;4921717;29;20465;-74
2021/08/05 06:59:20;;;;;;;4.00;3.70;;;19.70;99.90;;;;;;4921536;29;20945;-73
2021/08/05 07:01:48;;;;;;;5.07;3.77;;;19.80;99.90;;;;;;4921618;29;20525;-73
2021/08/05 07:04:14;;;;;;;7.33;4.83;;;19.80;99.90;;;;;;4921623;29;20564;-73
2021/08/05 07:06:42;;;;;;;5.80;4.00;;;19.90;99.90;;;;;;4921336;29;20480;-73
2021/08/05 07:09:09;;;;;;;3.63;3.33;;;19.90;99.90;;;;;;4921645;29;20469;-74
2021/08/05 07:11:36;;;;;;;6.73;4.00;;;20.00;99.90;;;;;;4921459;29;20465;-73
2021/08/05 07:14:03;;;;;;;4.83;4.10;;;20.10;99.90;;;;;;4921351;29;20583;-74
2021/08/05 07:16:30;;;;;;;7.53;4.93;;;20.20;99.90;;;;;;4921262;29;20461;-73
2021/08/05 07:18:57;;;;;;;5.60;3.90;;;20.20;99.90;;;;;;4921082;29;20529;-74
2021/08/05 07:21:24;;;;;;;4.37;3.90;;;20.30;99.90;;;;;;4920993;29;20954;-74
2021/08/05 07:23:52;;;;;;;4.30;3.93;;;20.40;99.90;;;;;;4921240;29;20525;-74
2021/08/05 07:26:18;;;;;;;7.17;4.20;;;20.50;99.90;;;;;;4921227;29;20555;-74
2021/08/05 07:28:45;;;;;;;5.30;4.17;;;20.60;99.90;;;;;;4921071;29;20492;-74
2021/08/05 07:31:12;;;;;;;4.60;3.73;;;20.70;99.90;;;;;;4921081;29;20540;-74
2021/08/05 07:33:39;;;;;;;4.13;3.73;;;20.80;99.90;;;;;;4920980;29;20457;-73
2021/08/05 07:36:06;;;;;;;6.27;3.50;;;21.00;99.90;;;;;;4920815;29;20473;-74
2021/08/05 07:38:32;;;;;;;10.60;4.60;;;21.10;99.90;;;;;;4920874;29;20463;-74
2021/08/05 07:41:01;;;;;;;5.50;4.23;;;21.20;99.90;;;;;;4921219;29;20465;-74
2021/08/05 07:43:27;;;;;;;3.97;3.60;;;21.30;99.90;;;;;;4921412;29;20484;-74
2021/08/05 07:45:54;;;;;;;8.60;3.87;;;21.30;99.90;;;;;;4920864;29;20477;-74
2021/08/05 07:48:21;;;;;;;4.40;4.00;;;21.50;99.90;;;;;;4920870;29;20992;-74
2021/08/05 07:50:48;;;;;;;5.40;4.37;;;21.50;99.90;;;;;;4920918;29;20760;-74
2021/08/05 07:53:14;;;;;;;7.33;4.27;;;21.60;99.90;;;;;;4920264;29;20470;-75
2021/08/05 07:55:41;;;;;;;5.03;4.30;;;21.70;99.90;;;;;;4920760;29;20466;-74
2021/08/05 07:58:09;;;;;;;4.73;3.93;;;21.70;99.90;;;;;;4920564;29;20473;-73
2021/08/05 08:00:37;;;;;;;5.33;4.17;;;21.80;99.90;;;;;;4920849;29;20474;-74
2021/08/05 08:03:04;;;;;;;8.03;3.73;;;21.90;99.90;;;;;;4920871;29;20472;-74
2021/08/05 08:05:31;;;;;;;4.50;4.10;;;22.00;99.90;;;;;;4920834;29;20461;-74
2021/08/05 08:07:59;;;;;;;6.30;4.27;;;22.00;99.90;;;;;;4920878;29;20883;-74
2021/08/05 08:10:26;;;;;;;5.90;4.40;;;22.00;99.90;;;;;;4920561;29;20568;-75
2021/08/05 08:12:53;;;;;;;5.33;4.13;;;22.10;99.90;;;;;;4920141;29;20454;-74
2021/08/05 08:15:22;;;;;;;4.50;4.10;;;22.20;99.90;;;;;;4919909;29;20520;-73
2021/08/05 08:17:49;;;;;;;5.80;4.30;;;22.20;99.90;;;;;;4920416;29;20595;-74
2021/08/05 08:20:16;;;;;;;6.00;4.10;;;22.30;99.90;;;;;;4920381;29;20574;-73
2021/08/05 08:22:43;;;;;;;4.80;4.40;;;22.50;99.90;;;;;;4920389;29;20911;-74
2021/08/05 08:25:11;;;;;;;4.77;4.27;;;22.50;99.90;;;;;;4919766;29;20846;-74
2021/08/05 08:27:38;;;;;;;5.17;4.67;;;22.60;99.90;;;;;;4920234;29;20485;-74
2021/08/05 08:30:07;;;;;;;5.70;3.90;;;22.70;99.90;;;;;;4919821;29;20461;-74
2021/08/05 08:32:35;;;;;;;7.73;4.10;;;22.70;99.90;;;;;;4919448;29;20474;-73
2021/08/05 08:35:03;;;;;;;9.20;3.73;;;22.80;99.90;;;;;;4920100;29;20875;-73
2021/08/05 08:37:29;;;;;;;6.20;4.80;;;22.90;99.90;;;;;;4919793;29;20465;-73
2021/08/05 08:39:56;;;;;;;4.20;3.90;;;23.00;99.90;;;;;;4919671;29;20454;-74
2021/08/05 08:42:23;;;;;;;9.03;4.27;;;23.10;99.90;;;;;;4919468;29;20476;-73
2021/08/05 08:44:50;;;;;;;4.13;3.73;;;23.10;99.90;;;;;;4919487;29;20461;-73
2021/08/05 08:47:21;;;;;;;5.23;3.93;;;23.20;99.90;;;;;;4919729;29;20476;-74
2021/08/05 08:49:50;;;;;;;4.70;3.40;;;23.30;99.90;;;;;;4919551;29;20446;-73
2021/08/05 08:52:24;;;;;;;4.43;3.50;;;23.30;99.90;;;;;;4920007;29;20786;-74
2021/08/05 08:54:51;;;;;;;5.90;4.30;;;23.40;99.90;;;;;;4918740;29;20472;-74
2021/08/05 08:57:21;;;;;;;3.80;3.50;;;23.40;99.90;;;;;;4919682;29;20469;-74
2021/08/05 08:59:50;;;;;;;3.90;3.40;;;23.40;99.90;;;;;;4919285;29;20461;-74
2021/08/05 09:02:17;;;;;;;7.00;3.77;;;23.50;99.90;;;;;;4919392;29;20545;-74
2021/08/05 09:04:46;;;;;;;3.90;3.60;;;23.60;99.90;;;;;;4919484;29;20473;-73
2021/08/05 09:07:14;;;;;;;5.10;4.03;;;23.60;99.90;;;;;;4919367;29;20789;-74
2021/08/05 09:09:41;;;;;;;4.77;3.90;;;23.60;99.90;;;;;;4919482;29;20496;-75
2021/08/05 09:12:13;;;;;;;3.73;3.43;;;23.70;99.90;;;;;;4919324;29;20473;-74
2021/08/05 09:14:42;;;;;;;4.33;3.53;;;23.70;99.90;;;;;;4919118;29;20498;-72
2021/08/05 09:17:20;;;;;;;3.93;3.37;;;23.70;99.90;;;;;;4919264;29;20493;-74
2021/08/05 09:19:47;;;;;;;4.50;4.10;;;23.80;99.90;;;;;;4919265;29;20473;-73
2021/08/05 09:22:39;;;;;;;4.77;4.20;;;24.00;99.90;;;;;;4919433;29;20476;-74
2021/08/05 09:25:29;;;;;;;4.40;4.00;;;24.10;99.90;;;;;;4919204;29;20465;-73
2021/08/05 09:27:58;;;;;;;4.53;3.40;;;24.30;99.90;;;;;;4918899;29;20493;-74
2021/08/05 09:30:33;;;;;;;3.40;3.13;;;24.30;99.90;;;;;;4918823;29;20476;-73
2021/08/05 09:33:05;;;;;;;3.37;3.07;;;24.40;99.90;;;;;;4918675;29;20453;-74
2021/08/05 09:35:32;;;;;;;3.47;3.17;;;24.50;99.90;;;;;;4918742;29;20472;-73
2021/08/05 09:41:06;;;;;;;3.63;3.33;;;24.50;99.90;;;;;;5092193;27;20545;-74
2021/08/05 09:43:33;;;;;;;3.33;3.03;;;24.60;99.90;;;;;;5090938;28;20787;-74
2021/08/05 09:46:00;;;;;;;6.60;2.33;;;24.70;99.90;;;;;;5091587;28;20547;-74
2021/08/05 09:48:34;;;;;;;2.63;2.43;;;24.80;99.90;;;;;;5091820;28;20450;-73
2021/08/05 09:51:05;;;;;;;2.80;2.60;;;25.00;99.90;;;;;;5091692;28;20528;-73
2021/08/05 09:53:32;;;;;;;6.10;3.20;;;25.10;99.90;;;;;;5091957;28;20450;-73
2021/08/05 09:56:10;;;;;;;4.53;3.10;;;25.30;99.90;;;;;;5092049;28;20564;-73
2021/08/05 09:58:37;;;;;;;3.10;2.67;;;25.30;99.90;;;;;;5092254;28;20506;-73
2021/08/05 10:01:07;;;;;;;2.80;2.60;;;25.30;99.90;;;;;;5093358;28;20457;-73
2021/08/05 10:03:35;;;;;;;3.20;2.60;;;25.40;99.90;;;;;;5093455;28;20473;-73
2021/08/05 10:06:02;;;;;;;3.70;2.80;;;25.60;99.90;;;;;;5091634;28;20519;-73
2021/08/05 10:08:36;;;;;;;2.43;2.23;;;25.70;99.90;;;;;;5091601;28;20550;-73
2021/08/05 10:11:04;;;;;;;2.87;2.67;;;25.90;99.90;;;;;;5092057;28;20450;-74
2021/08/05 10:13:35;;;;;;;3.90;3.03;;;26.00;99.90;;;;;;5091268;28;20458;-74
2021/08/05 10:16:02;;;;;;;3.70;3.40;;;26.00;99.90;;;;;;5096825;28;20446;-74
2021/08/05 10:18:31;;;;;;;4.83;2.90;;;26.10;99.90;;;;;;5095774;28;20792;-73
2021/08/05 10:21:00;;;;;;;3.83;2.47;;;26.20;99.90;;;;;;5091711;28;20477;-73
2021/08/05 10:23:28;;;;;;;3.20;2.60;;;26.40;99.90;;;;;;5091151;28;20469;-73
2021/08/05 10:25:57;;;;;;;4.30;2.60;;;26.50;99.90;;;;;;5091116;28;20464;-73
2021/08/05 10:28:24;;;;;;;3.40;3.10;;;26.60;99.90;;;;;;5091324;28;20465;-73
2021/08/05 10:30:54;;;;;;;2.37;2.17;;;26.80;99.90;;;;;;5091306;28;20473;-74
2021/08/05 10:33:21;;;;;;;2.70;2.50;;;27.10;99.90;;;;;;5091510;28;20453;-73
2021/08/05 10:35:49;;;;;;;3.17;2.70;;;27.30;99.90;;;;;;5091001;28;20467;-73
2021/08/05 10:38:17;;;;;;;2.87;2.67;;;27.40;99.90;;;;;;5091041;28;20910;-75
2021/08/05 10:40:48;;;;;;;2.93;2.70;;;27.30;99.90;;;;;;5091140;28;20916;-74
2021/08/05 10:43:15;;;;;;;2.80;2.60;;;27.10;99.90;;;;;;5091188;28;20438;-73
2021/08/05 10:45:42;;;;;;;2.60;2.27;;;27.00;99.90;;;;;;5091122;28;20787;-74
2021/08/05 10:48:11;;;;;;;3.23;2.40;;;27.10;99.90;;;;;;5090634;28;20442;-73
2021/08/05 10:50:44;;;;;;;2.17;2.00;;;27.20;99.90;;;;;;5086664;28;20842;-73
2021/08/05 10:53:31;;;;;;;5.17;2.37;;;27.20;99.90;;;;;;5078255;28;20442;-74
2021/08/05 10:56:17;;;;;;;3.00;2.67;;;27.30;99.90;;;;;;5078724;28;20473;-73
2021/08/05 10:59:03;;;;;;;3.63;3.33;;;27.30;99.90;;;;;;5076615;28;20443;-73
2021/08/05 11:01:48;;;;;;;3.87;2.70;;;27.30;99.90;;;;;;5076610;28;20866;-73
2021/08/05 11:04:42;;;;;;;2.30;2.10;;;27.30;99.90;;;;;;5076557;28;20442;-73
2021/08/05 11:07:33;;;;;;;2.70;2.50;;;27.30;99.90;;;;;;5076651;28;20781;-73
2021/08/05 11:10:24;;;;;;;4.70;2.47;;;27.40;99.90;;;;;;5076219;28;20893;-73
2021/08/05 11:12:54;;;;;;;3.30;2.33;;;27.50;99.90;;;;;;5076349;28;20465;-73
2021/08/05 11:15:48;;;;;;;2.67;2.40;;;27.40;99.90;;;;;;5076960;28;20458;-74
2021/08/05 11:18:17;;;;;;;5.97;2.70;;;27.60;99.90;;;;;;5077747;28;20504;-74
2021/08/05 11:20:46;;;;;;;2.37;2.20;;;27.60;99.90;;;;;;5078250;28;20478;-74
2021/08/05 11:23:40;;;;;;;2.93;2.73;;;27.80;99.90;;;;;;5078264;28;20454;-73
2021/08/05 11:26:09;;;;;;;2.40;2.07;;;28.00;99.90;;;;;;5077664;28;20457;-73
2021/08/05 11:28:45;;;;;;;2.30;2.10;;;28.20;99.90;;;;;;5077622;28;20847;-76
2021/08/05 11:31:25;;;;;;;3.73;2.57;;;28.30;99.90;;;;;;5077578;28;20430;-74
2021/08/05 11:33:53;;;;;;;2.20;2.10;;;28.40;99.90;;;;;;5077313;28;20438;-73
2021/08/05 11:36:24;;;;;;;2.07;1.97;;;28.40;99.90;;;;;;5076900;28;20907;-73
2021/08/05 11:39:02;;;;;;;2.93;2.70;;;28.30;99.90;;;;;;5076865;28;20478;-74
2021/08/05 11:41:47;;;;;;;2.73;2.30;;;28.30;99.90;;;;;;5077619;28;20435;-74
2021/08/05 11:44:19;;;;;;;2.43;2.10;;;28.20;99.90;;;;;;5076796;28;20530;-74
2021/08/05 11:46:48;;;;;;;2.47;2.10;;;28.40;99.90;;;;;;5076761;28;20458;-74
2021/08/05 11:49:30;;;;;;;2.10;1.90;;;28.60;99.90;;;;;;5077077;28;20464;-73
2021/08/05 11:51:59;;;;;;;3.50;2.50;;;28.90;99.90;;;;;;5076800;28;20457;-73
2021/08/05 11:54:25;;;;;;;2.67;2.20;;;29.00;99.90;;;;;;5076465;28;20788;-74
2021/08/05 11:56:59;;;;;;;2.80;2.30;;;29.10;99.90;;;;;;5076029;28;20821;-73
2021/08/05 11:59:34;;;;;;;2.50;2.33;;;29.30;99.90;;;;;;5076393;28;20508;-74
2021/08/05 12:02:05;;;;;;;3.23;2.50;;;29.60;99.90;;;;;;5075587;28;20457;-73
2021/08/05 12:04:32;;;;;;;2.10;2.00;;;29.90;99.90;;;;;;5075760;28;20454;-73
2021/08/05 12:07:23;;;;;;;4.40;1.90;;;30.30;99.90;;;;;;5075750;28;20454;-74
2021/08/05 12:09:52;;;;;;;5.40;2.30;;;30.80;99.90;;;;;;5075521;28;20439;-74
2021/08/05 12:12:19;;;;;;;2.30;2.10;;;31.20;99.10;;;;;;5075566;28;20461;-73
2021/08/05 12:14:51;;;;;;;2.40;2.20;;;31.50;98.90;;;;;;5076320;28;20934;-72
2021/08/05 12:17:32;;;;;;;4.03;3.10;;;31.80;98.30;;;;;;5076743;28;20541;-72
2021/08/05 12:20:00;;;;;;;2.20;2.00;;;31.90;97.90;;;;;;5076551;28;20473;-72
2021/08/05 12:22:33;;;;;;;2.73;2.53;;;32.00;95.50;;;;;;5076863;28;20903;-73
2021/08/05 12:25:03;;;;;;;4.17;2.50;;;31.80;94.30;;;;;;5076705;28;20442;-73
2021/08/05 12:27:30;;;;;;;5.37;2.20;;;31.50;93.00;;;;;;5075924;28;20465;-73
2021/08/05 12:29:59;;;;;;;3.33;2.00;;;31.30;93.80;;;;;;5076066;28;20960;-73
2021/08/05 12:32:26;;;;;;;2.50;2.30;;;31.10;94.60;;;;;;5076053;28;20466;-73
2021/08/05 12:34:55;;;;;;;3.50;2.20;;;31.10;95.60;;;;;;5075981;28;20462;-73
2021/08/05 12:37:22;;;;;;;2.33;2.13;;;31.00;94.60;;;;;;5075611;28;20457;-72
2021/08/05 12:39:50;;;;;;;3.23;2.10;;;30.90;93.30;;;;;;5075715;28;20887;-73
2021/08/05 12:42:18;;;;;;;2.30;2.10;;;30.90;93.00;;;;;;5075691;28;20455;-72
2021/08/05 12:44:45;;;;;;;2.53;2.33;;;30.80;92.60;;;;;;5075990;28;20458;-73
2021/08/05 12:47:13;;;;;;;2.13;1.93;;;30.60;92.60;;;;;;5075215;28;20450;-73
2021/08/05 12:49:42;;;;;;;3.67;2.03;;;30.40;93.00;;;;;;5074898;28;20465;-73
2021/08/05 12:52:10;;;;;;;3.07;2.50;;;30.30;92.90;;;;;;5075225;28;20890;-73
2021/08/05 12:54:38;;;;;;;4.73;2.37;;;30.00;93.40;;;;;;5075468;28;20485;-73
2021/08/05 12:57:14;;;;;;;2.63;2.00;;;29.70;93.20;;;;;;5075020;28;20462;-73
2021/08/05 12:59:46;;;;;;;2.53;2.10;;;29.40;93.50;;;;;;5075273;28;20456;-74